sensor_id;sensor_type;location;lat;lon;timestamp;P1;durP1;ratioP1;P2;durP2;ratioP2
16153;SDS011;8182;55.648;13.208;2023-11-22T00:02:23;5.97;;;5.37;;
16153;SDS011;8182;55.648;13.208;2023-11-22T00:04:54;7.40;;;5.07;;
16153;SDS011;8182;55.648;13.208;2023-11-22T00:07:22;6.60;;;4.97;;
16153;SDS011;8182;55.648;13.208;2023-11-22T00:09:49;7.63;;;5.40;;
16153;SDS011;8182;55.648;13.208;2023-11-22T00:12:18;5.90;;;4.93;;
16153;SDS011;8182;55.648;13.208;2023-11-22T00:14:45;6.63;;;5.00;;
16153;SDS011;8182;55.648;13.208;2023-11-22T00:17:13;6.17;;;5.00;;
16153;SDS011;8182;55.648;13.208;2023-11-22T00:19:43;6.37;;;4.80;;
16153;SDS011;8182;55.648;13.208;2023-11-22T00:22:10;6.67;;;5.70;;
16153;SDS011;8182;55.648;13.208;2023-11-22T00:24:39;7.30;;;5.67;;
16153;SDS011;8182;55.648;13.208;2023-11-22T00:27:07;6.83;;;5.00;;
16153;SDS011;8182;55.648;13.208;2023-11-22T00:29:35;8.27;;;5.20;;
16153;SDS011;8182;55.648;13.208;2023-11-22T00:32:02;6.40;;;5.50;;
16153;SDS011;8182;55.648;13.208;2023-11-22T00:34:29;7.50;;;5.20;;
16153;SDS011;8182;55.648;13.208;2023-11-22T00:36:56;6.73;;;4.97;;
16153;SDS011;8182;55.648;13.208;2023-11-22T00:39:23;6.53;;;5.27;;
16153;SDS011;8182;55.648;13.208;2023-11-22T00:41:53;6.20;;;5.17;;
16153;SDS011;8182;55.648;13.208;2023-11-22T00:44:20;6.67;;;5.40;;
16153;SDS011;8182;55.648;13.208;2023-11-22T00:46:47;7.13;;;5.07;;
16153;SDS011;8182;55.648;13.208;2023-11-22T00:49:15;7.50;;;5.10;;
16153;SDS011;8182;55.648;13.208;2023-11-22T00:51:42;7.33;;;5.57;;
16153;SDS011;8182;55.648;13.208;2023-11-22T00:54:10;7.00;;;5.33;;
16153;SDS011;8182;55.648;13.208;2023-11-22T00:56:37;6.10;;;5.07;;
16153;SDS011;8182;55.648;13.208;2023-11-22T00:59:05;6.53;;;5.07;;
16153;SDS011;8182;55.648;13.208;2023-11-22T01:01:32;6.97;;;5.50;;
16153;SDS011;8182;55.648;13.208;2023-11-22T01:03:59;5.83;;;5.00;;
16153;SDS011;8182;55.648;13.208;2023-11-22T01:06:26;6.87;;;5.30;;
16153;SDS011;8182;55.648;13.208;2023-11-22T01:08:57;6.23;;;5.10;;
16153;SDS011;8182;55.648;13.208;2023-11-22T01:11:24;5.90;;;4.97;;
16153;SDS011;8182;55.648;13.208;2023-11-22T01:13:51;7.83;;;5.27;;
16153;SDS011;8182;55.648;13.208;2023-11-22T01:16:20;6.77;;;4.83;;
16153;SDS011;8182;55.648;13.208;2023-11-22T01:18:47;7.27;;;5.30;;
16153;SDS011;8182;55.648;13.208;2023-11-22T01:21:14;5.33;;;4.67;;
16153;SDS011;8182;55.648;13.208;2023-11-22T01:23:41;6.07;;;4.97;;
16153;SDS011;8182;55.648;13.208;2023-11-22T01:26:11;6.13;;;5.00;;
16153;SDS011;8182;55.648;13.208;2023-11-22T01:28:38;6.30;;;4.73;;
16153;SDS011;8182;55.648;13.208;2023-11-22T01:31:10;6.47;;;5.10;;
16153;SDS011;8182;55.648;13.208;2023-11-22T01:33:41;6.03;;;4.90;;
16153;SDS011;8182;55.648;13.208;2023-11-22T01:36:08;6.23;;;5.10;;
16153;SDS011;8182;55.648;13.208;2023-11-22T01:38:35;5.90;;;5.03;;
16153;SDS011;8182;55.648;13.208;2023-11-22T01:41:04;9.73;;;4.97;;
16153;SDS011;8182;55.648;13.208;2023-11-22T01:43:31;5.73;;;4.77;;
16153;SDS011;8182;55.648;13.208;2023-11-22T01:45:58;5.97;;;5.10;;
16153;SDS011;8182;55.648;13.208;2023-11-22T01:48:25;8.00;;;5.40;;
16153;SDS011;8182;55.648;13.208;2023-11-22T01:50:54;6.27;;;5.27;;
16153;SDS011;8182;55.648;13.208;2023-11-22T01:53:21;6.40;;;5.13;;
16153;SDS011;8182;55.648;13.208;2023-11-22T01:55:48;6.90;;;5.03;;
16153;SDS011;8182;55.648;13.208;2023-11-22T01:58:16;6.60;;;5.40;;
16153;SDS011;8182;55.648;13.208;2023-11-22T02:00:43;6.20;;;4.70;;
16153;SDS011;8182;55.648;13.208;2023-11-22T02:03:14;6.87;;;5.30;;
16153;SDS011;8182;55.648;13.208;2023-11-22T02:05:41;5.53;;;4.80;;
16153;SDS011;8182;55.648;13.208;2023-11-22T02:08:10;5.47;;;4.83;;
16153;SDS011;8182;55.648;13.208;2023-11-22T02:10:37;8.53;;;5.30;;
16153;SDS011;8182;55.648;13.208;2023-11-22T02:13:05;6.47;;;5.23;;
16153;SDS011;8182;55.648;13.208;2023-11-22T02:15:35;6.17;;;5.30;;
16153;SDS011;8182;55.648;13.208;2023-11-22T02:18:03;6.57;;;5.07;;
16153;SDS011;8182;55.648;13.208;2023-11-22T02:20:34;5.67;;;4.87;;
16153;SDS011;8182;55.648;13.208;2023-11-22T02:23:03;5.87;;;5.17;;
16153;SDS011;8182;55.648;13.208;2023-11-22T02:25:35;6.87;;;4.87;;
16153;SDS011;8182;55.648;13.208;2023-11-22T02:28:02;6.97;;;5.20;;
16153;SDS011;8182;55.648;13.208;2023-11-22T02:30:34;6.13;;;5.10;;
16153;SDS011;8182;55.648;13.208;2023-11-22T02:33:01;6.17;;;5.00;;
16153;SDS011;8182;55.648;13.208;2023-11-22T02:35:30;6.80;;;5.60;;
16153;SDS011;8182;55.648;13.208;2023-11-22T02:37:57;6.97;;;4.97;;
16153;SDS011;8182;55.648;13.208;2023-11-22T02:40:25;5.50;;;4.77;;
16153;SDS011;8182;55.648;13.208;2023-11-22T02:42:53;7.80;;;5.40;;
16153;SDS011;8182;55.648;13.208;2023-11-22T02:45:23;6.17;;;5.10;;
16153;SDS011;8182;55.648;13.208;2023-11-22T02:47:54;6.60;;;4.73;;
16153;SDS011;8182;55.648;13.208;2023-11-22T02:50:21;6.80;;;4.87;;
16153;SDS011;8182;55.648;13.208;2023-11-22T02:52:48;8.27;;;5.00;;
16153;SDS011;8182;55.648;13.208;2023-11-22T02:55:16;6.93;;;5.03;;
16153;SDS011;8182;55.648;13.208;2023-11-22T02:57:45;6.33;;;4.83;;
16153;SDS011;8182;55.648;13.208;2023-11-22T03:00:12;7.77;;;4.37;;
16153;SDS011;8182;55.648;13.208;2023-11-22T03:02:47;8.97;;;5.20;;
16153;SDS011;8182;55.648;13.208;2023-11-22T03:05:18;5.67;;;4.63;;
16153;SDS011;8182;55.648;13.208;2023-11-22T03:07:45;6.00;;;5.07;;
16153;SDS011;8182;55.648;13.208;2023-11-22T03:10:12;7.20;;;5.23;;
16153;SDS011;8182;55.648;13.208;2023-11-22T03:12:39;7.10;;;5.20;;
16153;SDS011;8182;55.648;13.208;2023-11-22T03:15:09;7.57;;;5.23;;
16153;SDS011;8182;55.648;13.208;2023-11-22T03:17:37;5.87;;;4.87;;
16153;SDS011;8182;55.648;13.208;2023-11-22T03:20:04;9.37;;;4.63;;
16153;SDS011;8182;55.648;13.208;2023-11-22T03:22:34;5.63;;;4.67;;
16153;SDS011;8182;55.648;13.208;2023-11-22T03:25:01;6.43;;;5.00;;
16153;SDS011;8182;55.648;13.208;2023-11-22T03:27:28;6.60;;;5.40;;
16153;SDS011;8182;55.648;13.208;2023-11-22T03:29:55;8.47;;;5.53;;
16153;SDS011;8182;55.648;13.208;2023-11-22T03:32:28;7.60;;;4.93;;
16153;SDS011;8182;55.648;13.208;2023-11-22T03:34:54;6.57;;;5.40;;
16153;SDS011;8182;55.648;13.208;2023-11-22T03:37:22;6.57;;;5.37;;
16153;SDS011;8182;55.648;13.208;2023-11-22T03:39:49;7.97;;;4.97;;
16153;SDS011;8182;55.648;13.208;2023-11-22T03:42:16;6.47;;;5.10;;
16153;SDS011;8182;55.648;13.208;2023-11-22T03:44:43;7.00;;;4.97;;
16153;SDS011;8182;55.648;13.208;2023-11-22T03:47:10;5.47;;;4.60;;
16153;SDS011;8182;55.648;13.208;2023-11-22T03:49:39;8.20;;;4.50;;
16153;SDS011;8182;55.648;13.208;2023-11-22T03:52:07;5.77;;;4.87;;
16153;SDS011;8182;55.648;13.208;2023-11-22T03:54:36;6.23;;;4.57;;
16153;SDS011;8182;55.648;13.208;2023-11-22T03:57:03;6.40;;;4.47;;
16153;SDS011;8182;55.648;13.208;2023-11-22T03:59:30;6.10;;;4.80;;
16153;SDS011;8182;55.648;13.208;2023-11-22T04:01:57;6.00;;;4.80;;
16153;SDS011;8182;55.648;13.208;2023-11-22T04:04:24;6.93;;;5.37;;
16153;SDS011;8182;55.648;13.208;2023-11-22T04:06:56;8.13;;;5.60;;
16153;SDS011;8182;55.648;13.208;2023-11-22T04:09:22;8.80;;;5.43;;
16153;SDS011;8182;55.648;13.208;2023-11-22T04:11:49;6.70;;;4.87;;
16153;SDS011;8182;55.648;13.208;2023-11-22T04:14:16;6.30;;;4.70;;
16153;SDS011;8182;55.648;13.208;2023-11-22T04:16:45;5.73;;;4.60;;
16153;SDS011;8182;55.648;13.208;2023-11-22T04:19:12;5.80;;;4.90;;
16153;SDS011;8182;55.648;13.208;2023-11-22T04:21:39;5.37;;;4.83;;
16153;SDS011;8182;55.648;13.208;2023-11-22T04:24:07;5.90;;;5.17;;
16153;SDS011;8182;55.648;13.208;2023-11-22T04:26:36;6.30;;;5.10;;
16153;SDS011;8182;55.648;13.208;2023-11-22T04:29:03;7.60;;;4.70;;
16153;SDS011;8182;55.648;13.208;2023-11-22T04:31:30;5.37;;;4.43;;
16153;SDS011;8182;55.648;13.208;2023-11-22T04:33:57;7.43;;;5.10;;
16153;SDS011;8182;55.648;13.208;2023-11-22T04:36:25;8.20;;;4.70;;
16153;SDS011;8182;55.648;13.208;2023-11-22T04:38:52;5.07;;;4.40;;
16153;SDS011;8182;55.648;13.208;2023-11-22T04:41:21;4.90;;;4.40;;
16153;SDS011;8182;55.648;13.208;2023-11-22T04:43:50;4.70;;;4.20;;
16153;SDS011;8182;55.648;13.208;2023-11-22T04:46:17;5.03;;;4.47;;
16153;SDS011;8182;55.648;13.208;2023-11-22T04:48:44;5.50;;;4.73;;
16153;SDS011;8182;55.648;13.208;2023-11-22T04:51:12;6.17;;;4.80;;
16153;SDS011;8182;55.648;13.208;2023-11-22T04:53:41;5.00;;;4.40;;
16153;SDS011;8182;55.648;13.208;2023-11-22T04:56:09;5.37;;;4.43;;
16153;SDS011;8182;55.648;13.208;2023-11-22T04:58:37;5.20;;;4.47;;
16153;SDS011;8182;55.648;13.208;2023-11-22T05:01:04;4.90;;;4.40;;
16153;SDS011;8182;55.648;13.208;2023-11-22T05:03:31;7.20;;;5.00;;
16153;SDS011;8182;55.648;13.208;2023-11-22T05:05:58;5.83;;;4.40;;
16153;SDS011;8182;55.648;13.208;2023-11-22T05:08:25;6.07;;;4.63;;
16153;SDS011;8182;55.648;13.208;2023-11-22T05:10:52;5.47;;;4.33;;
16153;SDS011;8182;55.648;13.208;2023-11-22T05:13:19;6.40;;;4.90;;
16153;SDS011;8182;55.648;13.208;2023-11-22T05:15:48;5.27;;;4.37;;
16153;SDS011;8182;55.648;13.208;2023-11-22T05:18:15;6.37;;;4.67;;
16153;SDS011;8182;55.648;13.208;2023-11-22T05:20:42;6.27;;;4.73;;
16153;SDS011;8182;55.648;13.208;2023-11-22T05:23:09;6.30;;;4.83;;
16153;SDS011;8182;55.648;13.208;2023-11-22T05:25:36;5.70;;;4.30;;
16153;SDS011;8182;55.648;13.208;2023-11-22T05:28:03;5.63;;;4.70;;
16153;SDS011;8182;55.648;13.208;2023-11-22T05:30:30;6.20;;;4.97;;
16153;SDS011;8182;55.648;13.208;2023-11-22T05:33:01;7.07;;;4.80;;
16153;SDS011;8182;55.648;13.208;2023-11-22T05:35:28;5.63;;;4.73;;
16153;SDS011;8182;55.648;13.208;2023-11-22T05:37:57;5.87;;;4.83;;
16153;SDS011;8182;55.648;13.208;2023-11-22T05:40:24;6.13;;;5.03;;
16153;SDS011;8182;55.648;13.208;2023-11-22T05:42:51;9.40;;;5.47;;
16153;SDS011;8182;55.648;13.208;2023-11-22T05:45:18;6.63;;;5.23;;
16153;SDS011;8182;55.648;13.208;2023-11-22T05:47:45;6.47;;;5.27;;
16153;SDS011;8182;55.648;13.208;2023-11-22T05:50:14;7.23;;;5.40;;
16153;SDS011;8182;55.648;13.208;2023-11-22T05:52:41;7.97;;;5.60;;
16153;SDS011;8182;55.648;13.208;2023-11-22T05:55:09;9.27;;;5.27;;
16153;SDS011;8182;55.648;13.208;2023-11-22T05:57:39;7.03;;;4.90;;
16153;SDS011;8182;55.648;13.208;2023-11-22T06:00:06;6.33;;;5.30;;
16153;SDS011;8182;55.648;13.208;2023-11-22T06:02:34;8.70;;;5.57;;
16153;SDS011;8182;55.648;13.208;2023-11-22T06:05:01;6.37;;;5.23;;
16153;SDS011;8182;55.648;13.208;2023-11-22T06:07:29;7.07;;;5.30;;
16153;SDS011;8182;55.648;13.208;2023-11-22T06:09:57;6.17;;;5.10;;
16153;SDS011;8182;55.648;13.208;2023-11-22T06:12:28;7.10;;;5.27;;
16153;SDS011;8182;55.648;13.208;2023-11-22T06:14:55;11.20;;;6.23;;
16153;SDS011;8182;55.648;13.208;2023-11-22T06:17:22;8.60;;;5.87;;
16153;SDS011;8182;55.648;13.208;2023-11-22T06:19:50;7.30;;;5.60;;
16153;SDS011;8182;55.648;13.208;2023-11-22T06:22:17;7.90;;;5.73;;
16153;SDS011;8182;55.648;13.208;2023-11-22T06:24:45;8.13;;;5.30;;
16153;SDS011;8182;55.648;13.208;2023-11-22T06:27:13;5.10;;;4.60;;
16153;SDS011;8182;55.648;13.208;2023-11-22T06:29:41;7.93;;;5.57;;
16153;SDS011;8182;55.648;13.208;2023-11-22T06:32:08;7.90;;;5.40;;
16153;SDS011;8182;55.648;13.208;2023-11-22T06:34:35;7.00;;;5.30;;
16153;SDS011;8182;55.648;13.208;2023-11-22T06:37:02;7.67;;;5.40;;
16153;SDS011;8182;55.648;13.208;2023-11-22T06:39:32;6.97;;;5.23;;
16153;SDS011;8182;55.648;13.208;2023-11-22T06:42:00;11.73;;;5.90;;
16153;SDS011;8182;55.648;13.208;2023-11-22T06:44:27;8.93;;;6.23;;
16153;SDS011;8182;55.648;13.208;2023-11-22T06:46:54;10.23;;;5.90;;
16153;SDS011;8182;55.648;13.208;2023-11-22T06:49:23;8.43;;;5.50;;
16153;SDS011;8182;55.648;13.208;2023-11-22T06:51:50;8.47;;;5.33;;
16153;SDS011;8182;55.648;13.208;2023-11-22T06:54:18;6.63;;;5.60;;
16153;SDS011;8182;55.648;13.208;2023-11-22T06:56:45;9.50;;;6.33;;
16153;SDS011;8182;55.648;13.208;2023-11-22T06:59:13;8.73;;;6.17;;
16153;SDS011;8182;55.648;13.208;2023-11-22T07:01:40;7.00;;;5.10;;
16153;SDS011;8182;55.648;13.208;2023-11-22T07:04:07;10.10;;;6.40;;
16153;SDS011;8182;55.648;13.208;2023-11-22T07:06:34;8.40;;;6.17;;
16153;SDS011;8182;55.648;13.208;2023-11-22T07:09:02;10.37;;;5.90;;
16153;SDS011;8182;55.648;13.208;2023-11-22T07:11:29;9.00;;;6.43;;
16153;SDS011;8182;55.648;13.208;2023-11-22T07:13:56;10.93;;;5.73;;
16153;SDS011;8182;55.648;13.208;2023-11-22T07:16:25;11.10;;;6.40;;
16153;SDS011;8182;55.648;13.208;2023-11-22T07:18:52;8.83;;;5.93;;
16153;SDS011;8182;55.648;13.208;2023-11-22T07:21:19;9.90;;;6.40;;
16153;SDS011;8182;55.648;13.208;2023-11-22T07:23:46;8.90;;;6.30;;
16153;SDS011;8182;55.648;13.208;2023-11-22T07:26:13;9.47;;;6.07;;
16153;SDS011;8182;55.648;13.208;2023-11-22T07:28:40;8.73;;;5.90;;
16153;SDS011;8182;55.648;13.208;2023-11-22T07:31:07;7.07;;;5.70;;
16153;SDS011;8182;55.648;13.208;2023-11-22T07:33:40;7.97;;;6.07;;
16153;SDS011;8182;55.648;13.208;2023-11-22T07:36:07;8.27;;;5.90;;
16153;SDS011;8182;55.648;13.208;2023-11-22T07:38:34;9.30;;;5.90;;
16153;SDS011;8182;55.648;13.208;2023-11-22T07:41:01;11.83;;;6.80;;
16153;SDS011;8182;55.648;13.208;2023-11-22T07:43:28;8.07;;;6.27;;
16153;SDS011;8182;55.648;13.208;2023-11-22T07:45:55;14.70;;;8.23;;
16153;SDS011;8182;55.648;13.208;2023-11-22T07:48:24;8.93;;;6.57;;
16153;SDS011;8182;55.648;13.208;2023-11-22T07:50:56;11.93;;;7.47;;
16153;SDS011;8182;55.648;13.208;2023-11-22T07:53:24;11.73;;;8.83;;
16153;SDS011;8182;55.648;13.208;2023-11-22T07:55:54;15.70;;;8.50;;
16153;SDS011;8182;55.648;13.208;2023-11-22T07:58:21;12.33;;;7.53;;
16153;SDS011;8182;55.648;13.208;2023-11-22T08:00:48;10.90;;;7.83;;
16153;SDS011;8182;55.648;13.208;2023-11-22T08:03:15;13.17;;;7.63;;
16153;SDS011;8182;55.648;13.208;2023-11-22T08:05:48;10.77;;;7.73;;
16153;SDS011;8182;55.648;13.208;2023-11-22T08:08:17;10.70;;;8.00;;
16153;SDS011;8182;55.648;13.208;2023-11-22T08:10:45;12.20;;;6.80;;
16153;SDS011;8182;55.648;13.208;2023-11-22T08:13:12;11.37;;;6.93;;
16153;SDS011;8182;55.648;13.208;2023-11-22T08:15:40;12.73;;;6.70;;
16153;SDS011;8182;55.648;13.208;2023-11-22T08:18:07;9.93;;;6.77;;
16153;SDS011;8182;55.648;13.208;2023-11-22T08:20:35;9.20;;;6.53;;
16153;SDS011;8182;55.648;13.208;2023-11-22T08:23:03;10.47;;;6.50;;
16153;SDS011;8182;55.648;13.208;2023-11-22T08:25:33;10.30;;;6.70;;
16153;SDS011;8182;55.648;13.208;2023-11-22T08:27:59;9.03;;;7.00;;
16153;SDS011;8182;55.648;13.208;2023-11-22T08:30:26;9.03;;;6.63;;
16153;SDS011;8182;55.648;13.208;2023-11-22T08:32:53;8.63;;;6.30;;
16153;SDS011;8182;55.648;13.208;2023-11-22T08:35:21;11.10;;;6.30;;
16153;SDS011;8182;55.648;13.208;2023-11-22T08:37:50;11.37;;;6.80;;
16153;SDS011;8182;55.648;13.208;2023-11-22T08:40:22;11.33;;;6.37;;
16153;SDS011;8182;55.648;13.208;2023-11-22T08:42:52;9.97;;;6.80;;
16153;SDS011;8182;55.648;13.208;2023-11-22T08:45:19;9.60;;;6.53;;
16153;SDS011;8182;55.648;13.208;2023-11-22T08:47:49;8.67;;;6.43;;
16153;SDS011;8182;55.648;13.208;2023-11-22T08:50:16;12.10;;;6.40;;
16153;SDS011;8182;55.648;13.208;2023-11-22T08:52:43;10.57;;;6.63;;
16153;SDS011;8182;55.648;13.208;2023-11-22T08:55:12;10.03;;;6.77;;
16153;SDS011;8182;55.648;13.208;2023-11-22T08:57:40;10.27;;;6.60;;
16153;SDS011;8182;55.648;13.208;2023-11-22T09:00:09;9.37;;;6.60;;
16153;SDS011;8182;55.648;13.208;2023-11-22T09:02:36;8.10;;;6.23;;
16153;SDS011;8182;55.648;13.208;2023-11-22T09:05:04;11.43;;;6.73;;
16153;SDS011;8182;55.648;13.208;2023-11-22T09:07:33;8.43;;;6.73;;
16153;SDS011;8182;55.648;13.208;2023-11-22T09:10:04;10.03;;;6.80;;
16153;SDS011;8182;55.648;13.208;2023-11-22T09:12:35;9.80;;;7.03;;
16153;SDS011;8182;55.648;13.208;2023-11-22T09:15:03;9.00;;;6.47;;
16153;SDS011;8182;55.648;13.208;2023-11-22T09:17:35;10.23;;;6.90;;
16153;SDS011;8182;55.648;13.208;2023-11-22T09:20:04;9.97;;;7.40;;
16153;SDS011;8182;55.648;13.208;2023-11-22T09:22:36;10.07;;;7.10;;
16153;SDS011;8182;55.648;13.208;2023-11-22T09:25:04;9.87;;;6.63;;
16153;SDS011;8182;55.648;13.208;2023-11-22T09:27:34;11.50;;;7.10;;
16153;SDS011;8182;55.648;13.208;2023-11-22T09:30:02;12.47;;;7.47;;
16153;SDS011;8182;55.648;13.208;2023-11-22T09:32:34;10.80;;;6.40;;
16153;SDS011;8182;55.648;13.208;2023-11-22T09:35:03;11.33;;;6.87;;
16153;SDS011;8182;55.648;13.208;2023-11-22T09:37:31;9.53;;;6.70;;
16153;SDS011;8182;55.648;13.208;2023-11-22T09:39:58;9.07;;;6.93;;
16153;SDS011;8182;55.648;13.208;2023-11-22T09:42:25;12.40;;;7.70;;
16153;SDS011;8182;55.648;13.208;2023-11-22T09:44:52;11.37;;;7.20;;
16153;SDS011;8182;55.648;13.208;2023-11-22T09:47:19;12.53;;;8.63;;
16153;SDS011;8182;55.648;13.208;2023-11-22T09:49:49;10.70;;;7.77;;
16153;SDS011;8182;55.648;13.208;2023-11-22T09:52:18;15.43;;;8.30;;
16153;SDS011;8182;55.648;13.208;2023-11-22T09:54:49;10.57;;;8.07;;
16153;SDS011;8182;55.648;13.208;2023-11-22T09:57:17;11.77;;;7.40;;
16153;SDS011;8182;55.648;13.208;2023-11-22T09:59:44;12.20;;;8.20;;
16153;SDS011;8182;55.648;13.208;2023-11-22T10:02:16;9.97;;;7.07;;
16153;SDS011;8182;55.648;13.208;2023-11-22T10:04:45;12.90;;;7.73;;
16153;SDS011;8182;55.648;13.208;2023-11-22T10:07:14;9.57;;;7.00;;
16153;SDS011;8182;55.648;13.208;2023-11-22T10:09:42;8.63;;;6.80;;
16153;SDS011;8182;55.648;13.208;2023-11-22T10:12:09;10.97;;;7.30;;
16153;SDS011;8182;55.648;13.208;2023-11-22T10:14:40;9.20;;;6.60;;
16153;SDS011;8182;55.648;13.208;2023-11-22T10:17:07;8.00;;;6.53;;
16153;SDS011;8182;55.648;13.208;2023-11-22T10:19:35;7.97;;;6.27;;
16153;SDS011;8182;55.648;13.208;2023-11-22T10:22:02;9.27;;;6.90;;
16153;SDS011;8182;55.648;13.208;2023-11-22T10:24:32;8.63;;;6.50;;
16153;SDS011;8182;55.648;13.208;2023-11-22T10:26:59;8.77;;;6.33;;
16153;SDS011;8182;55.648;13.208;2023-11-22T10:29:27;9.53;;;6.87;;
16153;SDS011;8182;55.648;13.208;2023-11-22T10:31:54;8.67;;;6.07;;
16153;SDS011;8182;55.648;13.208;2023-11-22T10:34:22;8.87;;;5.90;;
16153;SDS011;8182;55.648;13.208;2023-11-22T10:36:50;6.07;;;5.23;;
16153;SDS011;8182;55.648;13.208;2023-11-22T10:39:19;6.17;;;5.07;;
16153;SDS011;8182;55.648;13.208;2023-11-22T10:41:48;7.23;;;4.90;;
16153;SDS011;8182;55.648;13.208;2023-11-22T10:44:16;6.73;;;4.63;;
16153;SDS011;8182;55.648;13.208;2023-11-22T10:46:47;5.53;;;4.73;;
16153;SDS011;8182;55.648;13.208;2023-11-22T10:49:15;7.80;;;4.30;;
16153;SDS011;8182;55.648;13.208;2023-11-22T10:51:42;7.03;;;4.10;;
16153;SDS011;8182;55.648;13.208;2023-11-22T10:54:12;5.50;;;3.87;;
16153;SDS011;8182;55.648;13.208;2023-11-22T10:56:39;5.00;;;3.50;;
16153;SDS011;8182;55.648;13.208;2023-11-22T10:59:10;3.90;;;3.43;;
16153;SDS011;8182;55.648;13.208;2023-11-22T11:01:41;4.33;;;3.60;;
16153;SDS011;8182;55.648;13.208;2023-11-22T11:04:15;4.13;;;3.40;;
16153;SDS011;8182;55.648;13.208;2023-11-22T11:06:47;4.53;;;3.67;;
16153;SDS011;8182;55.648;13.208;2023-11-22T11:09:17;4.07;;;3.13;;
16153;SDS011;8182;55.648;13.208;2023-11-22T11:11:49;3.73;;;3.17;;
16153;SDS011;8182;55.648;13.208;2023-11-22T11:14:20;4.67;;;3.30;;
16153;SDS011;8182;55.648;13.208;2023-11-22T11:16:48;4.43;;;3.50;;
16153;SDS011;8182;55.648;13.208;2023-11-22T11:19:19;5.43;;;3.10;;
16153;SDS011;8182;55.648;13.208;2023-11-22T11:21:47;3.90;;;3.20;;
16153;SDS011;8182;55.648;13.208;2023-11-22T11:24:22;3.37;;;3.07;;
16153;SDS011;8182;55.648;13.208;2023-11-22T11:26:49;3.83;;;2.70;;
16153;SDS011;8182;55.648;13.208;2023-11-22T11:29:31;2.93;;;2.63;;
16153;SDS011;8182;55.648;13.208;2023-11-22T11:31:59;4.20;;;2.63;;
16153;SDS011;8182;55.648;13.208;2023-11-22T11:34:31;3.77;;;2.63;;
16153;SDS011;8182;55.648;13.208;2023-11-22T11:36:58;3.40;;;2.50;;
16153;SDS011;8182;55.648;13.208;2023-11-22T11:39:26;3.97;;;2.40;;
16153;SDS011;8182;55.648;13.208;2023-11-22T11:42:08;3.07;;;2.53;;
16153;SDS011;8182;55.648;13.208;2023-11-22T11:44:37;3.70;;;2.20;;
16153;SDS011;8182;55.648;13.208;2023-11-22T11:47:16;2.83;;;2.23;;
16153;SDS011;8182;55.648;13.208;2023-11-22T11:49:44;2.57;;;2.37;;
16153;SDS011;8182;55.648;13.208;2023-11-22T11:52:11;2.87;;;2.40;;
16153;SDS011;8182;55.648;13.208;2023-11-22T11:54:38;2.50;;;2.30;;
16153;SDS011;8182;55.648;13.208;2023-11-22T11:57:05;3.13;;;2.10;;
16153;SDS011;8182;55.648;13.208;2023-11-22T11:59:33;2.60;;;2.00;;
16153;SDS011;8182;55.648;13.208;2023-11-22T12:02:01;3.37;;;2.50;;
16153;SDS011;8182;55.648;13.208;2023-11-22T12:04:36;3.33;;;2.00;;
16153;SDS011;8182;55.648;13.208;2023-11-22T12:07:07;4.83;;;2.30;;
16153;SDS011;8182;55.648;13.208;2023-11-22T12:09:34;2.40;;;2.20;;
16153;SDS011;8182;55.648;13.208;2023-11-22T12:12:01;5.57;;;2.43;;
16153;SDS011;8182;55.648;13.208;2023-11-22T12:14:28;2.47;;;2.00;;
16153;SDS011;8182;55.648;13.208;2023-11-22T12:16:56;3.10;;;2.07;;
16153;SDS011;8182;55.648;13.208;2023-11-22T12:19:27;3.33;;;2.07;;
16153;SDS011;8182;55.648;13.208;2023-11-22T12:21:56;3.60;;;2.00;;
16153;SDS011;8182;55.648;13.208;2023-11-22T12:24:24;2.47;;;2.00;;
16153;SDS011;8182;55.648;13.208;2023-11-22T12:26:51;4.30;;;2.17;;
16153;SDS011;8182;55.648;13.208;2023-11-22T12:29:23;2.23;;;1.83;;
16153;SDS011;8182;55.648;13.208;2023-11-22T12:31:50;2.20;;;1.90;;
16153;SDS011;8182;55.648;13.208;2023-11-22T12:34:20;2.17;;;1.93;;
16153;SDS011;8182;55.648;13.208;2023-11-22T12:36:49;2.13;;;1.90;;
16153;SDS011;8182;55.648;13.208;2023-11-22T12:39:16;2.33;;;2.10;;
16153;SDS011;8182;55.648;13.208;2023-11-22T12:41:47;3.17;;;1.90;;
16153;SDS011;8182;55.648;13.208;2023-11-22T12:44:16;2.20;;;2.00;;
16153;SDS011;8182;55.648;13.208;2023-11-22T12:46:46;3.83;;;2.10;;
16153;SDS011;8182;55.648;13.208;2023-11-22T12:49:17;2.00;;;1.90;;
16153;SDS011;8182;55.648;13.208;2023-11-22T12:54:31;2.57;;;2.03;;
16153;SDS011;8182;55.648;13.208;2023-11-22T12:57:00;4.47;;;2.00;;
16153;SDS011;8182;55.648;13.208;2023-11-22T12:59:27;5.43;;;1.90;;
16153;SDS011;8182;55.648;13.208;2023-11-22T13:01:55;4.90;;;2.00;;
16153;SDS011;8182;55.648;13.208;2023-11-22T13:04:27;2.13;;;1.83;;
16153;SDS011;8182;55.648;13.208;2023-11-22T13:06:55;2.27;;;1.90;;
16153;SDS011;8182;55.648;13.208;2023-11-22T13:09:25;5.63;;;2.17;;
16153;SDS011;8182;55.648;13.208;2023-11-22T13:11:52;2.00;;;1.80;;
16153;SDS011;8182;55.648;13.208;2023-11-22T13:14:19;2.63;;;2.00;;
16153;SDS011;8182;55.648;13.208;2023-11-22T13:17:00;3.50;;;2.10;;
16153;SDS011;8182;55.648;13.208;2023-11-22T13:19:29;2.93;;;1.93;;
16153;SDS011;8182;55.648;13.208;2023-11-22T13:21:56;2.10;;;1.80;;
16153;SDS011;8182;55.648;13.208;2023-11-22T13:24:23;3.40;;;2.07;;
16153;SDS011;8182;55.648;13.208;2023-11-22T13:26:51;2.60;;;2.00;;
16153;SDS011;8182;55.648;13.208;2023-11-22T13:29:21;3.07;;;1.90;;
16153;SDS011;8182;55.648;13.208;2023-11-22T13:31:48;2.73;;;1.70;;
16153;SDS011;8182;55.648;13.208;2023-11-22T13:34:16;2.27;;;2.00;;
16153;SDS011;8182;55.648;13.208;2023-11-22T13:36:43;3.10;;;1.90;;
16153;SDS011;8182;55.648;13.208;2023-11-22T13:39:10;2.77;;;1.80;;
16153;SDS011;8182;55.648;13.208;2023-11-22T13:41:40;2.80;;;1.90;;
16153;SDS011;8182;55.648;13.208;2023-11-22T13:44:08;2.13;;;1.50;;
16153;SDS011;8182;55.648;13.208;2023-11-22T13:46:35;2.53;;;1.80;;
16153;SDS011;8182;55.648;13.208;2023-11-22T13:49:03;2.03;;;1.77;;
16153;SDS011;8182;55.648;13.208;2023-11-22T13:51:31;4.10;;;1.70;;
16153;SDS011;8182;55.648;13.208;2023-11-22T13:53:58;3.37;;;1.90;;
16153;SDS011;8182;55.648;13.208;2023-11-22T13:56:25;2.10;;;1.80;;
16153;SDS011;8182;55.648;13.208;2023-11-22T13:58:52;2.60;;;1.70;;
16153;SDS011;8182;55.648;13.208;2023-11-22T14:01:20;8.20;;;1.50;;
16153;SDS011;8182;55.648;13.208;2023-11-22T14:03:47;1.70;;;1.60;;
16153;SDS011;8182;55.648;13.208;2023-11-22T14:06:14;1.60;;;1.50;;
16153;SDS011;8182;55.648;13.208;2023-11-22T14:08:42;4.67;;;1.37;;
16153;SDS011;8182;55.648;13.208;2023-11-22T14:11:09;2.03;;;1.53;;
16153;SDS011;8182;55.648;13.208;2023-11-22T14:13:37;1.63;;;1.53;;
16153;SDS011;8182;55.648;13.208;2023-11-22T14:16:05;3.67;;;1.50;;
16153;SDS011;8182;55.648;13.208;2023-11-22T14:18:33;2.20;;;1.53;;
16153;SDS011;8182;55.648;13.208;2023-11-22T14:21:00;2.30;;;1.50;;
16153;SDS011;8182;55.648;13.208;2023-11-22T14:23:29;3.00;;;1.70;;
16153;SDS011;8182;55.648;13.208;2023-11-22T14:25:56;1.90;;;1.57;;
16153;SDS011;8182;55.648;13.208;2023-11-22T14:28:23;1.53;;;1.43;;
16153;SDS011;8182;55.648;13.208;2023-11-22T14:30:50;4.33;;;1.83;;
16153;SDS011;8182;55.648;13.208;2023-11-22T14:33:19;4.73;;;1.57;;
16153;SDS011;8182;55.648;13.208;2023-11-22T14:35:47;1.87;;;1.50;;
16153;SDS011;8182;55.648;13.208;2023-11-22T14:38:14;2.50;;;1.60;;
16153;SDS011;8182;55.648;13.208;2023-11-22T14:40:43;2.67;;;1.63;;
16153;SDS011;8182;55.648;13.208;2023-11-22T14:43:10;2.90;;;1.43;;
16153;SDS011;8182;55.648;13.208;2023-11-22T14:45:38;3.50;;;1.60;;
16153;SDS011;8182;55.648;13.208;2023-11-22T14:48:05;3.83;;;1.80;;
16153;SDS011;8182;55.648;13.208;2023-11-22T14:50:33;3.90;;;1.60;;
16153;SDS011;8182;55.648;13.208;2023-11-22T14:53:02;1.90;;;1.70;;
16153;SDS011;8182;55.648;13.208;2023-11-22T14:55:29;2.33;;;1.70;;